Time;durP1;ratioP1;P1;durP2;ratioP2;P2;SDS_P1;SDS_P2;PMS_P1;PMS_P2;Temp;Humidity;BMP_temperature;BMP_pressure;BME280_temperature;BME280_humidity;BME280_pressure;Samples;Min_cycle;Max_cycle;Signal;HPM_P1;HPM_P2
2021/09/28 00:00:29;;;;;;;7.57;5.28;;;;;;;20.31;44.08;99780.00;5050815;28;20418;-75
2021/09/28 00:02:55;;;;;;;7.85;5.55;;;;;;;20.27;44.05;99761.94;5052127;28;20021;-76
2021/09/28 00:05:21;;;;;;;7.75;5.53;;;;;;;20.56;44.40;99832.59;5052117;28;20096;-76
2021/09/28 00:07:46;;;;;;;8.80;5.90;;;;;;;19.75;44.23;99705.56;5052060;28;20171;-77
2021/09/28 00:10:12;;;;;;;7.22;5.68;;;;;;;19.98;44.36;99759.16;5051921;28;20036;-76
2021/09/28 00:12:38;;;;;;;6.50;5.55;;;;;;;20.41;44.57;99819.66;5052323;28;20037;-75
2021/09/28 00:15:06;;;;;;;6.68;5.22;;;;;;;20.47;44.34;99832.13;5052111;28;20048;-76
2021/09/28 00:17:31;;;;;;;6.65;5.95;;;;;;;20.25;44.45;99797.03;5051817;28;20452;-75
2021/09/28 00:19:57;;;;;;;7.97;5.65;;;;;;;20.46;44.62;99835.06;5051798;28;20025;-76
2021/09/28 00:22:22;;;;;;;7.32;5.82;;;;;;;19.98;44.70;99772.56;5051666;28;20017;-76
2021/09/28 00:24:47;;;;;;;7.13;5.35;;;;;;;19.73;44.59;99734.47;5051852;28;20405;-75
2021/09/28 00:27:13;;;;;;;7.70;5.82;;;;;;;19.75;44.70;99734.22;5051684;28;20036;-75
2021/09/28 00:29:38;;;;;;;8.27;5.68;;;;;;;20.41;44.49;99851.03;5051629;28;20029;-75
2021/09/28 00:32:06;;;;;;;7.25;6.35;;;;;;;19.61;44.17;99741.69;5051845;28;20051;-75
2021/09/28 00:34:33;;;;;;;8.43;7.38;;;;;;;20.23;44.48;99854.63;5051660;28;20041;-75
2021/09/28 00:36:58;;;;;;;10.23;7.43;;;;;;;20.04;44.40;99839.66;5051749;28;20031;-76
2021/09/28 00:39:23;;;;;;;7.10;6.38;;;;;;;20.08;44.48;99865.00;5051714;28;20024;-76
2021/09/28 00:41:49;;;;;;;10.25;6.53;;;;;;;19.92;44.36;99851.19;5051890;28;20497;-75
2021/09/28 00:44:14;;;;;;;7.82;6.43;;;;;;;19.47;44.49;99788.44;5051518;28;20021;-74
2021/09/28 00:46:40;;;;;;;10.77;8.52;;;;;;;19.75;44.57;99847.56;5051350;28;20029;-76
2021/09/28 00:49:05;;;;;;;10.07;8.52;;;;;;;19.77;44.62;99850.84;5051223;28;20047;-76
2021/09/28 00:51:31;;;;;;;8.82;6.95;;;;;;;17.27;44.67;99467.22;5051151;28;20029;-75
2021/09/28 00:53:57;;;;;;;8.95;7.30;;;;;;;19.33;45.02;99803.88;5051486;28;20024;-75
2021/09/28 00:56:23;;;;;;;8.80;6.20;;;;;;;19.54;45.01;99851.59;5051510;28;20029;-75
2021/09/28 00:58:51;;;;;;;9.68;6.93;;;;;;;19.45;45.22;99825.34;5051246;28;20150;-74
2021/09/28 01:01:17;;;;;;;7.88;6.38;;;;;;;19.50;45.18;99841.53;5050008;28;20021;-74
2021/09/28 01:03:42;;;;;;;9.98;5.95;;;;;;;19.43;45.26;99841.63;5051338;28;20025;-76
2021/09/28 01:06:08;;;;;;;6.70;6.05;;;;;;;19.03;45.35;99796.66;5051462;28;20102;-76
2021/09/28 01:08:34;;;;;;;6.68;6.00;;;;;;;19.29;45.66;99837.50;5051500;28;20457;-76
2021/09/28 01:11:02;;;;;;;6.00;5.45;;;;;;;18.75;45.49;99760.84;5050000;28;20028;-75
2021/09/28 01:13:28;;;;;;;6.57;5.90;;;;;;;19.13;45.61;99809.50;5051436;28;20059;-76
2021/09/28 01:15:59;;;;;;;6.95;6.30;;;;;;;19.25;45.80;99826.41;5051070;28;20033;-76
2021/09/28 01:18:33;;;;;;;6.97;6.22;;;;;;;19.23;45.68;99825.81;5051235;28;20485;-76
2021/09/28 01:21:00;;;;;;;9.43;6.35;;;;;;;19.18;45.78;99835.59;5051176;28;20025;-75
2021/09/28 01:23:25;;;;;;;9.38;5.93;;;;;;;19.15;45.71;99828.00;5051333;28;20569;-74
2021/09/28 01:25:51;;;;;;;8.20;6.00;;;;;;;18.94;45.76;99795.34;5051135;28;20160;-75
2021/09/28 01:28:16;;;;;;;7.40;6.00;;;;;;;18.88;45.88;99782.88;5049583;28;20033;-75
2021/09/28 01:30:42;;;;;;;7.00;6.30;;;;;;;19.10;46.12;99825.19;5051008;28;20053;-75
2021/09/28 01:33:08;;;;;;;7.95;5.85;;;;;;;18.87;46.04;99802.66;5050886;28;20013;-76
2021/09/28 01:35:37;;;;;;;9.45;5.72;;;;;;;18.91;46.03;99816.38;5051048;28;20501;-75
2021/09/28 01:38:03;;;;;;;7.85;6.65;;;;;;;18.88;46.04;99806.94;5050738;28;20078;-76
2021/09/28 01:40:28;;;;;;;7.20;6.50;;;;;;;18.14;46.14;99692.22;5050833;28;20021;-76
2021/09/28 01:42:54;;;;;;;8.27;6.50;;;;;;;18.51;46.19;99757.97;5050920;28;20043;-75
2021/09/28 01:45:19;;;;;;;7.70;6.88;;;;;;;18.86;46.18;99808.22;5051203;28;20028;-75
2021/09/28 01:47:44;;;;;;;6.75;5.95;;;;;;;18.75;46.37;99800.94;5051106;28;20017;-74
2021/09/28 01:50:10;;;;;;;6.43;5.82;;;;;;;18.68;46.32;99799.19;5050917;28;20477;-75
2021/09/28 01:52:37;;;;;;;6.78;6.07;;;;;;;18.42;46.21;99756.66;5050709;28;20025;-75
2021/09/28 01:55:04;;;;;;;8.00;6.90;;;;;;;18.65;46.45;99810.31;5051815;28;20021;-75
2021/09/28 01:57:30;;;;;;;8.63;6.78;;;;;;;18.43;46.42;99774.31;5054690;28;20048;-74
2021/09/28 01:59:55;;;;;;;11.65;6.50;;;;;;;18.33;46.47;99750.78;5054665;28;20092;-75
2021/09/28 02:02:20;;;;;;;6.57;5.93;;;;;;;18.64;46.54;99795.31;5054647;28;20025;-75
2021/09/28 02:04:46;;;;;;;11.48;6.25;;;;;;;18.67;46.74;99786.03;5053369;28;20017;-76
2021/09/28 02:07:11;;;;;;;9.57;6.40;;;;;;;17.54;46.77;99611.88;5054671;28;20060;-75
2021/09/28 02:09:36;;;;;;;7.38;6.43;;;;;;;18.61;46.64;99774.38;5054369;28;20104;-76
2021/09/28 02:12:02;;;;;;;9.35;6.68;;;;;;;18.74;46.61;99797.47;5054402;28;20021;-75
2021/09/28 02:14:28;;;;;;;9.23;6.70;;;;;;;18.77;46.54;99791.66;5054534;28;20086;-76
2021/09/28 02:16:55;;;;;;;9.65;7.07;;;;;;;18.79;46.38;99778.88;5054246;28;20032;-76
2021/09/28 02:19:21;;;;;;;7.65;6.72;;;;;;;18.80;46.46;99772.50;5054208;28;20071;-75
2021/09/28 02:21:47;;;;;;;8.88;6.75;;;;;;;18.80;46.74;99780.50;5054249;28;20025;-75
2021/09/28 02:24:12;;;;;;;11.50;6.78;;;;;;;18.81;46.81;99776.78;5054086;28;20025;-75
2021/09/28 02:26:38;;;;;;;10.60;7.07;;;;;;;18.84;46.75;99776.34;5054033;28;20040;-76
2021/09/28 02:29:04;;;;;;;9.77;6.60;;;;;;;18.82;46.56;99765.03;5053990;28;20470;-75
2021/09/28 02:31:30;;;;;;;8.35;6.95;;;;;;;18.94;46.45;99773.94;5053903;28;20028;-75
2021/09/28 02:33:55;;;;;;;8.48;6.85;;;;;;;18.93;46.81;99776.84;5053883;28;20438;-75
2021/09/28 02:36:20;;;;;;;8.20;6.85;;;;;;;18.83;46.84;99755.97;5054079;28;20016;-76
2021/09/28 02:38:46;;;;;;;7.78;5.80;;;;;;;18.88;46.94;99763.31;5053989;28;20398;-75
2021/09/28 02:41:12;;;;;;;7.93;6.32;;;;;;;18.88;46.92;99752.63;5053838;28;20522;-75
2021/09/28 02:43:38;;;;;;;10.23;6.80;;;;;;;18.83;47.01;99747.94;5053776;28;20048;-74
2021/09/28 02:46:03;;;;;;;9.55;6.93;;;;;;;18.87;46.81;99743.78;5053627;28;20111;-76
2021/09/28 02:48:30;;;;;;;9.70;6.75;;;;;;;19.00;46.82;99762.31;5053583;28;20033;-75
2021/09/28 02:50:55;;;;;;;10.30;7.50;;;;;;;18.32;46.80;99658.28;5053660;28;20052;-75
2021/09/28 02:53:21;;;;;;;8.85;6.45;;;;;;;19.12;46.78;99786.44;5053526;28;20087;-76
2021/09/28 02:55:46;;;;;;;13.50;7.53;;;;;;;18.73;46.49;99737.81;5053570;28;20025;-75
2021/09/28 02:58:11;;;;;;;9.57;6.55;;;;;;;18.95;46.44;99788.94;5053466;28;20102;-76
2021/09/28 03:00:37;;;;;;;9.38;7.00;;;;;;;18.58;46.19;99749.88;5053470;28;20078;-76
2021/09/28 03:03:03;;;;;;;7.45;5.97;;;;;;;18.35;46.30;99740.69;5053402;28;20485;-74
2021/09/28 03:05:28;;;;;;;8.80;7.38;;;;;;;17.36;46.32;99602.81;5053157;28;20391;-75
2021/09/28 03:07:54;;;;;;;6.57;5.78;;;;;;;18.35;46.69;99777.28;5053323;28;20493;-75
2021/09/28 03:10:19;;;;;;;7.85;5.95;;;;;;;17.93;47.01;99745.06;5052953;28;20052;-76
2021/09/28 03:12:45;;;;;;;10.40;6.50;;;;;;;18.21;46.98;99799.84;5053285;28;20021;-75
2021/09/28 03:15:11;;;;;;;7.65;6.22;;;;;;;18.16;47.10;99802.38;5053409;28;20135;-76
2021/09/28 03:17:36;;;;;;;7.75;5.95;;;;;;;17.86;47.08;99775.53;5053275;28;20028;-75
2021/09/28 03:20:02;;;;;;;7.82;6.40;;;;;;;17.79;47.48;99776.38;5053170;28;20029;-74
2021/09/28 03:22:27;;;;;;;7.35;6.43;;;;;;;17.85;47.29;99784.59;5053035;28;20518;-75
2021/09/28 03:24:53;;;;;;;7.68;6.22;;;;;;;17.93;47.56;99795.81;5052891;28;20021;-81
2021/09/28 03:27:18;;;;;;;9.05;6.50;;;;;;;17.94;47.43;99805.47;5053038;28;20025;-81
2021/09/28 03:29:44;;;;;;;9.27;6.75;;;;;;;17.82;47.37;99785.81;5053166;28;20020;-81
2021/09/28 03:32:09;;;;;;;7.63;6.55;;;;;;;17.83;47.95;99802.66;5053162;28;20025;-81
2021/09/28 03:34:34;;;;;;;7.57;6.18;;;;;;;17.67;48.11;99786.16;5052860;28;20057;-81
2021/09/28 03:37:00;;;;;;;7.03;6.32;;;;;;;17.55;48.12;99773.69;5052884;28;20104;-80
2021/09/28 03:39:25;;;;;;;8.60;6.95;;;;;;;17.81;47.88;99810.88;5052412;28;20025;-81
2021/09/28 03:41:51;;;;;;;9.43;6.60;;;;;;;17.68;48.04;99785.13;5052708;28;20074;-81
2021/09/28 03:44:16;;;;;;;9.48;6.72;;;;;;;16.94;48.02;99689.75;5052693;28;20024;-81
2021/09/28 03:46:41;;;;;;;7.95;6.75;;;;;;;17.46;48.20;99754.47;5052803;28;20024;-80
2021/09/28 03:49:07;;;;;;;8.30;6.60;;;;;;;17.24;48.18;99735.31;5052740;28;20024;-81
2021/09/28 03:51:32;;;;;;;7.47;6.60;;;;;;;17.76;47.98;99805.38;5052445;28;20452;-81
2021/09/28 03:53:58;;;;;;;15.38;7.35;;;;;;;17.79;47.94;99802.28;5052490;28;20029;-81
2021/09/28 03:56:23;;;;;;;9.80;6.72;;;;;;;17.82;47.96;99812.53;5052473;28;20021;-81
2021/09/28 03:58:48;;;;;;;9.73;6.32;;;;;;;17.74;48.15;99794.91;5051267;28;20112;-80
2021/09/28 04:01:14;;;;;;;10.90;6.38;;;;;;;17.33;47.98;99725.19;5052328;28;20028;-81
2021/09/28 04:03:43;;;;;;;7.40;6.30;;;;;;;17.88;48.09;99805.53;5050865;28;20050;-80
2021/09/28 04:06:09;;;;;;;8.48;6.20;;;;;;;17.59;48.13;99767.69;5052198;28;20475;-81
2021/09/28 04:08:35;;;;;;;11.45;7.18;;;;;;;17.34;48.16;99757.00;5052377;28;20036;-81
2021/09/28 04:11:01;;;;;;;9.00;6.82;;;;;;;17.48;48.01;99739.03;5052281;28;20403;-81
2021/09/28 04:13:26;;;;;;;9.95;6.80;;;;;;;18.02;48.22;99818.53;5052024;28;20033;-81
2021/09/28 04:15:52;;;;;;;10.70;7.55;;;;;;;18.08;47.74;99825.69;5051841;28;20463;-81
2021/09/28 04:18:18;;;;;;;9.38;7.00;;;;;;;18.12;47.87;99820.72;5051721;28;20040;-80
2021/09/28 04:20:45;;;;;;;10.40;7.40;;;;;;;18.18;47.87;99824.34;5052004;28;20051;-81
2021/09/28 04:23:13;;;;;;;11.38;7.22;;;;;;;18.22;47.73;99829.03;5051765;28;20029;-75
2021/09/28 04:25:40;;;;;;;9.75;7.18;;;;;;;18.25;47.72;99817.91;5051608;28;20086;-75
2021/09/28 04:28:08;;;;;;;9.75;7.30;;;;;;;18.27;47.76;99820.34;5050472;28;20021;-75
2021/09/28 04:30:33;;;;;;;11.98;7.45;;;;;;;17.67;47.70;99722.06;5051731;28;20029;-74
2021/09/28 04:32:58;;;;;;;11.52;7.78;;;;;;;18.06;47.70;99779.66;5051601;28;20079;-74
2021/09/28 04:35:24;;;;;;;11.45;7.32;;;;;;;18.34;47.61;99816.56;5051636;28;20083;-76
2021/09/28 04:37:49;;;;;;;12.43;7.60;;;;;;;18.43;47.51;99831.28;5051446;28;20032;-77
2021/09/28 04:40:15;;;;;;;13.20;8.57;;;;;;;18.44;47.55;99837.44;5051525;28;20027;-76
2021/09/28 04:42:41;;;;;;;15.73;8.15;;;;;;;18.40;47.72;99822.91;5051536;28;20112;-76
2021/09/28 04:45:08;;;;;;;12.52;8.27;;;;;;;18.47;47.57;99834.34;5051529;28;20099;-76
2021/09/28 04:47:34;;;;;;;12.77;7.78;;;;;;;18.42;47.52;99820.81;5051717;28;20033;-75
2021/09/28 04:49:59;;;;;;;14.32;7.53;;;;;;;18.55;47.42;99839.38;5051445;28;20027;-76
2021/09/28 04:52:25;;;;;;;14.93;7.65;;;;;;;18.43;47.59;99825.13;5051204;28;20029;-75
2021/09/28 04:54:50;;;;;;;14.68;7.72;;;;;;;17.72;47.74;99738.25;5051291;28;20040;-76
2021/09/28 04:57:16;;;;;;;13.50;7.68;;;;;;;17.71;47.91;99735.78;5051227;28;20488;-76
2021/09/28 04:59:41;;;;;;;13.18;8.07;;;;;;;18.02;48.03;99783.00;5051419;28;20081;-75
2021/09/28 05:02:06;;;;;;;11.63;7.88;;;;;;;18.37;48.17;99850.06;5050038;28;20023;-76
2021/09/28 05:04:32;;;;;;;14.10;7.50;;;;;;;18.35;48.34;99854.81;5051070;28;20028;-75
2021/09/28 05:06:57;;;;;;;14.30;8.20;;;;;;;17.87;48.21;99788.69;5051056;28;20020;-75
2021/09/28 05:09:23;;;;;;;15.77;8.50;;;;;;;18.28;48.40;99859.41;5059436;28;20036;-76
2021/09/28 05:11:48;;;;;;;22.70;9.52;;;;;;;18.29;48.46;99866.41;5070326;28;20439;-76
2021/09/28 05:14:14;;;;;;;32.40;9.95;;;;;;;18.30;48.38;99868.03;5070855;28;20028;-76
2021/09/28 05:16:40;;;;;;;16.27;9.20;;;;;;;18.31;48.40;99865.13;5071231;28;20024;-76
2021/09/28 05:19:06;;;;;;;29.92;19.75;;;;;;;18.31;48.25;99867.00;5071270;28;20029;-76
2021/09/28 05:21:32;;;;;;;46.90;24.50;;;;;;;18.31;48.25;99859.78;5070648;28;20102;-75
2021/09/28 05:23:57;;;;;;;50.47;29.85;;;;;;;18.30;48.18;99854.66;5070910;28;20142;-76
2021/09/28 05:26:24;;;;;;;49.38;28.77;;;;;;;17.44;48.27;99719.97;5070378;28;20111;-76
2021/09/28 05:28:50;;;;;;;46.72;29.13;;;;;;;18.37;48.11;99858.91;5071539;28;20560;-76
2021/09/28 05:31:15;;;;;;;51.55;28.70;;;;;;;18.41;48.08;99860.09;5074180;28;20046;-76
2021/09/28 05:33:41;;;;;;;43.83;24.05;;;;;;;18.45;47.90;99865.81;5074343;28;20053;-75
2021/09/28 05:36:06;;;;;;;37.97;21.08;;;;;;;18.46;48.17;99866.63;5074850;28;20139;-75
2021/09/28 05:38:32;;;;;;;28.48;18.80;;;;;;;18.00;48.11;99793.91;5075135;28;20024;-76
2021/09/28 05:40:58;;;;;;;33.03;18.75;;;;;;;18.18;48.00;99819.00;5074849;28;20452;-76
2021/09/28 05:43:24;;;;;;;36.45;19.08;;;;;;;18.22;48.24;99822.88;5074849;28;20059;-75
2021/09/28 05:45:50;;;;;;;24.70;16.77;;;;;;;18.05;48.35;99786.03;5074019;28;20024;-76
2021/09/28 05:48:16;;;;;;;28.65;15.68;;;;;;;18.36;48.25;99827.06;5074702;28;20394;-76
2021/09/28 05:50:42;;;;;;;22.73;15.07;;;;;;;18.63;48.30;99859.72;5073528;28;20028;-76
2021/09/28 05:53:09;;;;;;;17.83;13.95;;;;;;;18.70;48.16;99853.25;5074614;28;20401;-77
2021/09/28 05:55:37;;;;;;;25.23;14.85;;;;;;;18.76;47.97;99859.56;5074598;28;20024;-77
2021/09/28 05:58:03;;;;;;;22.90;14.75;;;;;;;18.88;47.80;99867.66;5072124;28;20051;-75
2021/09/28 06:00:30;;;;;;;22.02;14.07;;;;;;;18.93;47.68;99870.50;5073643;28;20064;-76
2021/09/28 06:02:55;;;;;;;32.10;13.32;;;;;;;18.74;47.48;99829.56;5074200;28;20028;-76
2021/09/28 06:05:21;;;;;;;24.83;13.82;;;;;;;18.82;47.27;99842.63;5074212;28;20070;-75
2021/09/28 06:07:47;;;;;;;22.67;13.32;;;;;;;19.17;47.09;99879.47;5074237;28;20024;-75
2021/09/28 06:10:12;;;;;;;22.60;13.15;;;;;;;19.25;47.13;99873.78;5074210;28;20028;-76
2021/09/28 06:12:38;;;;;;;23.80;13.63;;;;;;;19.17;47.09;99852.69;5074266;28;20035;-76
2021/09/28 06:15:04;;;;;;;23.15;13.57;;;;;;;19.44;46.89;99888.78;5073811;28;20024;-76
2021/09/28 06:17:30;;;;;;;23.00;12.93;;;;;;;19.53;46.81;99881.28;5073952;28;20408;-75
2021/09/28 06:19:55;;;;;;;21.20;13.20;;;;;;;19.62;46.71;99885.28;5073994;28;20027;-76
2021/09/28 06:22:20;;;;;;;22.77;11.90;;;;;;;19.31;46.82;99813.97;5074182;28;20024;-76
2021/09/28 06:24:46;;;;;;;24.52;12.80;;;;;;;19.73;46.57;99872.97;5074234;28;20020;-76
2021/09/28 06:27:11;;;;;;;21.85;11.82;;;;;;;19.91;46.64;99888.94;5073396;28;20024;-75
2021/09/28 06:29:37;;;;;;;20.40;12.93;;;;;;;19.92;46.41;99877.19;5073878;28;20085;-76
2021/09/28 06:32:03;;;;;;;28.80;17.70;;;;;;;20.02;46.52;99892.69;5070639;28;20024;-75
2021/09/28 06:34:28;;;;;;;21.02;12.77;;;;;;;20.05;46.78;99898.41;5073139;28;20505;-76
2021/09/28 06:36:53;;;;;;;20.65;14.23;;;;;;;20.12;46.66;99896.47;5073578;28;20029;-76
2021/09/28 06:39:19;;;;;;;28.80;14.40;;;;;;;19.89;46.62;99856.22;5073652;28;20398;-75
2021/09/28 06:41:45;;;;;;;22.50;12.75;;;;;;;20.17;46.70;99898.47;5072325;28;20103;-76
2021/09/28 06:44:12;;;;;;;22.23;12.65;;;;;;;19.77;46.83;99823.22;5063811;28;20049;-76
2021/09/28 06:46:37;;;;;;;23.73;13.93;;;;;;;20.12;46.65;99877.72;5062698;28;20043;-76
2021/09/28 06:49:03;;;;;;;24.90;14.48;;;;;;;20.28;47.03;99901.16;5071594;28;20024;-76
2021/09/28 06:51:29;;;;;;;23.20;14.63;;;;;;;19.94;47.15;99843.75;5061452;28;20029;-75
2021/09/28 06:53:54;;;;;;;24.05;15.13;;;;;;;20.43;47.16;99907.94;5053801;28;20039;-77
2021/09/28 06:56:21;;;;;;;19.52;12.07;;;;;;;19.92;47.20;99808.31;5062070;28;20032;-75
2021/09/28 06:58:47;;;;;;;19.00;12.57;;;;;;;20.31;47.22;99855.09;5069845;28;20086;-76
2021/09/28 07:01:13;;;;;;;19.55;12.75;;;;;;;20.66;47.50;99907.13;5070942;28;20485;-76
2021/09/28 07:03:39;;;;;;;19.40;10.70;;;;;;;20.74;47.45;99912.94;5053008;28;20051;-76
2021/09/28 07:06:05;;;;;;;17.90;10.70;;;;;;;20.80;47.49;99920.03;5052464;28;20513;-76
2021/09/28 07:08:31;;;;;;;15.95;9.98;;;;;;;20.88;47.67;99924.25;5062341;28;20052;-76
2021/09/28 07:10:56;;;;;;;13.60;8.95;;;;;;;20.20;47.67;99807.66;5052841;28;20033;-76
2021/09/28 07:13:22;;;;;;;14.82;7.30;;;;;;;21.05;47.53;99925.16;5067682;28;20028;-76
2021/09/28 07:15:47;;;;;;;13.38;7.40;;;;;;;20.50;47.25;99841.56;5068017;28;20555;-76
2021/09/28 07:18:12;;;;;;;15.15;7.72;;;;;;;21.17;47.20;99928.63;5070661;28;20032;-76
2021/09/28 07:20:39;;;;;;;12.32;7.32;;;;;;;21.18;47.08;99942.88;5068474;28;20032;-76
2021/09/28 07:23:05;;;;;;;18.25;9.05;;;;;;;21.31;46.91;99920.34;5068610;28;20028;-76
2021/09/28 07:25:31;;;;;;;14.65;9.25;;;;;;;21.41;47.00;99925.91;5068257;28;20035;-76
2021/09/28 07:28:00;;;;;;;22.23;9.07;;;;;;;20.60;46.84;99772.03;5067105;28;20036;-76
2021/09/28 07:30:27;;;;;;;16.50;8.90;;;;;;;21.64;46.70;99933.88;5071734;28;20035;-74
2021/09/28 07:32:53;;;;;;;11.50;8.40;;;;;;;21.70;46.59;99926.75;5061442;28;20040;-76
2021/09/28 07:35:18;;;;;;;19.48;11.60;;;;;;;21.14;46.76;99831.63;5059849;28;20045;-76
2021/09/28 07:37:44;;;;;;;18.17;9.73;;;;;;;21.80;46.60;99926.91;5058237;28;20551;-75
2021/09/28 07:40:10;;;;;;;13.70;8.48;;;;;;;21.66;46.65;99893.34;5064223;28;20052;-77
2021/09/28 07:42:35;;;;;;;11.05;7.90;;;;;;;21.87;46.63;99927.59;5068949;28;20024;-76
2021/09/28 07:45:03;;;;;;;15.23;7.78;;;;;;;21.96;46.71;99933.38;5070238;28;20035;-76
2021/09/28 07:47:30;;;;;;;9.65;6.85;;;;;;;22.02;46.70;99927.84;5071682;28;20023;-75
2021/09/28 07:49:55;;;;;;;11.23;8.52;;;;;;;22.09;46.83;99900.81;5071808;28;20017;-76
2021/09/28 07:52:21;;;;;;;11.35;8.05;;;;;;;22.13;46.66;99886.63;5069698;28;20020;-76
2021/09/28 07:54:46;;;;;;;9.48;7.93;;;;;;;22.43;46.52;99910.53;5071453;28;20063;-75
2021/09/28 07:57:12;;;;;;;12.70;6.32;;;;;;;22.50;46.20;99913.03;5059362;28;20051;-75
2021/09/28 07:59:38;;;;;;;11.05;8.65;;;;;;;22.63;46.17;99919.94;5054333;28;20074;-76
2021/09/28 08:02:04;;;;;;;8.88;6.97;;;;;;;22.51;46.00;99885.88;5056363;28;20025;-76
2021/09/28 08:04:30;;;;;;;7.93;6.20;;;;;;;22.67;45.89;99910.31;5060450;28;20489;-77
2021/09/28 08:06:56;;;;;;;12.65;8.32;;;;;;;22.58;45.84;99884.91;5066489;28;20520;-75
2021/09/28 08:09:21;;;;;;;7.68;6.80;;;;;;;22.59;45.72;99884.66;5063050;28;20020;-75
2021/09/28 08:11:47;;;;;;;13.60;10.65;;;;;;;22.77;45.70;99905.88;5060409;28;20033;-75
2021/09/28 08:14:13;;;;;;;8.65;5.47;;;;;;;22.63;45.66;99883.09;5050118;28;20028;-75
2021/09/28 08:16:39;;;;;;;6.55;5.30;;;;;;;22.73;45.85;99907.44;5067478;28;20032;-74
2021/09/28 08:19:05;;;;;;;7.28;6.50;;;;;;;22.52;45.83;99865.16;5069854;28;20467;-75
2021/09/28 08:21:31;;;;;;;6.90;4.95;;;;;;;22.74;45.51;99908.25;5057615;28;20021;-75
2021/09/28 08:23:57;;;;;;;6.70;5.60;;;;;;;21.98;44.81;99772.63;5065956;28;20073;-75
2021/09/28 08:29:11;;;;;;;7.10;4.85;;;;;;;22.88;44.86;99889.91;5067360;28;20036;-74
2021/09/28 08:31:43;;;;;;;7.82;5.13;;;;;;;22.77;44.78;99872.78;5063220;28;20036;-76
2021/09/28 08:34:10;;;;;;;7.18;6.18;;;;;;;22.83;44.62;99861.84;5070835;28;20044;-75
2021/09/28 08:36:35;;;;;;;14.63;10.45;;;;;;;22.96;44.60;99884.88;5053607;28;20025;-75
2021/09/28 08:39:03;;;;;;;8.60;5.78;;;;;;;22.10;44.49;99749.16;5061908;28;20028;-76
2021/09/28 08:41:28;;;;;;;9.00;4.53;;;;;;;23.09;44.45;99906.09;5054775;28;20086;-78
2021/09/28 08:43:54;;;;;;;10.23;5.68;;;;;;;23.17;44.20;99904.00;5059881;28;20028;-78
2021/09/28 08:46:20;;;;;;;5.03;4.40;;;;;;;23.20;43.79;99907.00;5064809;28;20025;-78
2021/09/28 08:48:48;;;;;;;7.35;5.25;;;;;;;22.49;43.67;99787.63;5062871;28;20017;-76
2021/09/28 08:51:14;;;;;;;6.53;4.65;;;;;;;22.96;43.47;99843.69;5052255;28;20064;-76
2021/09/28 08:53:39;;;;;;;4.90;4.40;;;;;;;23.02;43.49;99854.25;5063677;28;20040;-75
2021/09/28 08:56:07;;;;;;;8.63;5.35;;;;;;;23.27;43.44;99906.81;5069449;28;20047;-77
2021/09/28 08:58:34;;;;;;;5.75;4.80;;;;;;;23.35;43.48;99899.09;5060964;28;20048;-77
2021/09/28 09:01:07;;;;;;;7.32;4.68;;;;;;;23.35;43.11;99890.19;5062838;28;20496;-78
2021/09/28 09:03:34;;;;;;;6.55;5.60;;;;;;;23.35;43.25;99892.91;5057712;28;20022;-74
2021/09/28 09:06:03;;;;;;;11.88;7.40;;;;;;;23.03;43.38;99830.84;5070988;28;20021;-78
2021/09/28 09:08:33;;;;;;;8.25;6.43;;;;;;;23.44;43.20;99889.50;5062705;28;20528;-76
2021/09/28 09:11:07;;;;;;;6.70;5.47;;;;;;;23.38;42.96;99868.94;5070541;28;20036;-77
2021/09/28 09:13:37;;;;;;;8.10;5.90;;;;;;;23.26;43.10;99851.31;5069240;28;20086;-78
2021/09/28 09:16:04;;;;;;;8.05;5.72;;;;;;;23.50;42.98;99874.19;5062750;28;20033;-78
2021/09/28 09:18:29;;;;;;;5.78;4.85;;;;;;;23.26;42.37;99844.03;5060510;28;20088;-76
2021/09/28 09:20:58;;;;;;;7.07;4.82;;;;;;;23.35;42.38;99864.06;5070556;28;20017;-77
2021/09/28 09:23:34;;;;;;;5.25;4.57;;;;;;;23.46;42.13;99871.19;5070465;28;20021;-78
2021/09/28 09:26:15;;;;;;;5.93;4.88;;;;;;;23.51;41.94;99872.31;5070845;28;20101;-75
2021/09/28 09:28:52;;;;;;;5.80;5.18;;;;;;;23.53;42.16;99872.88;5068693;28;20082;-75
2021/09/28 09:31:29;;;;;;;8.23;7.43;;;;;;;23.57;42.22;99872.13;5066300;28;20023;-74
2021/09/28 09:34:05;;;;;;;11.57;8.32;;;;;;;23.60;42.21;99870.81;5068431;28;20068;-75
2021/09/28 09:36:30;;;;;;;12.93;9.60;;;;;;;22.98;42.19;99769.66;5049601;28;20032;-75
2021/09/28 09:38:57;;;;;;;10.15;9.15;;;;;;;23.66;41.92;99875.19;5049477;28;20029;-76
2021/09/28 09:41:30;;;;;;;6.18;5.57;;;;;;;23.67;41.60;99868.72;5063073;28;20509;-75
2021/09/28 09:44:01;;;;;;;6.50;5.90;;;;;;;23.64;41.49;99861.97;5065557;28;20523;-75
2021/09/28 09:46:41;;;;;;;7.32;5.32;;;;;;;23.46;41.52;99833.47;5069426;28;20055;-76
2021/09/28 09:49:07;;;;;;;9.82;8.93;;;;;;;23.66;41.60;99859.00;5069667;28;20017;-74
2021/09/28 09:51:47;;;;;;;11.23;9.43;;;;;;;23.65;41.46;99852.81;5066330;28;20044;-76
2021/09/28 09:54:14;;;;;;;6.50;5.85;;;;;;;23.64;41.22;99861.97;5067101;28;20040;-76
2021/09/28 09:56:47;;;;;;;7.90;5.50;;;;;;;23.60;41.15;99862.72;5086650;28;20027;-76
2021/09/28 09:59:15;;;;;;;5.80;5.20;;;;;;;23.13;41.43;99785.19;5089490;28;20024;-75
2021/09/28 10:01:40;;;;;;;6.70;5.00;;;;;;;23.28;41.52;99796.09;5089537;28;20047;-75
2021/09/28 10:04:07;;;;;;;9.55;5.53;;;;;;;23.67;41.21;99858.75;5085873;28;20489;-76
2021/09/28 10:06:33;;;;;;;5.55;4.70;;;;;;;23.55;41.10;99831.16;5089582;28;20020;-76
2021/09/28 10:08:58;;;;;;;7.50;5.70;;;;;;;23.30;41.32;99783.19;5089819;28;20421;-77
2021/09/28 10:11:26;;;;;;;12.75;11.15;;;;;;;23.29;41.32;99780.75;5089666;28;20042;-75
2021/09/28 10:13:54;;;;;;;8.88;7.65;;;;;;;23.94;41.33;99852.53;5089791;28;20049;-77
2021/09/28 10:16:34;;;;;;;6.82;6.18;;;;;;;23.99;40.86;99853.38;5091018;28;20028;-76
2021/09/28 10:19:02;;;;;;;9.30;6.25;;;;;;;24.03;41.01;99853.66;5091972;28;20090;-77
2021/09/28 10:21:38;;;;;;;6.38;5.78;;;;;;;23.81;40.38;99805.25;5093388;28;20036;-75
2021/09/28 10:24:19;;;;;;;9.57;8.20;;;;;;;24.04;40.46;99850.72;5093756;28;20508;-81
2021/09/28 10:26:46;;;;;;;6.43;5.83;;;;;;;24.06;40.49;99845.06;5093968;28;20079;-80
2021/09/28 10:29:42;;;;;;;6.25;5.20;;;;;;;23.59;40.79;99772.97;5092409;28;20293;-79
2021/09/28 10:32:28;;;;;;;5.30;4.80;;;;;;;24.07;40.29;99847.50;5093421;28;20561;-81
2021/09/28 10:35:06;;;;;;;5.25;4.75;;;;;;;24.08;40.34;99849.13;5093726;28;20051;-81
2021/09/28 10:37:52;;;;;;;6.82;6.13;;;;;;;24.04;40.41;99850.72;5093779;28;20553;-82
2021/09/28 10:40:17;;;;;;;5.90;5.00;;;;;;;24.03;40.25;99850.97;5092326;28;20020;-82
2021/09/28 10:42:52;;;;;;;6.97;5.13;;;;;;;24.02;40.49;99850.16;5093617;28;20052;-81
2021/09/28 10:45:38;;;;;;;7.75;5.25;;;;;;;24.00;40.16;99841.50;5092273;28;20034;-81
2021/09/28 10:48:27;;;;;;;8.27;5.68;;;;;;;23.52;40.15;99783.13;5090944;28;20035;-81
2021/09/28 10:51:09;;;;;;;9.70;7.30;;;;;;;23.73;40.76;99808.38;5093004;28;20273;-81
2021/09/28 10:53:46;;;;;;;6.57;5.45;;;;;;;23.45;40.59;99764.47;5093348;28;20051;-81
2021/09/28 10:56:14;;;;;;;5.88;5.35;;;;;;;23.89;40.39;99833.59;5093435;28;20032;-80
2021/09/28 10:58:56;;;;;;;8.80;5.75;;;;;;;23.76;40.17;99819.47;5093104;28;20023;-81
2021/09/28 11:01:24;;;;;;;28.75;7.20;;;;;;;23.88;40.51;99840.06;5093321;28;20036;-81
2021/09/28 11:03:58;;;;;;;8.25;5.75;;;;;;;23.57;40.36;99803.94;5093171;28;20032;-81
2021/09/28 11:06:42;;;;;;;6.10;5.45;;;;;;;23.83;40.47;99838.16;5093043;28;20028;-81
2021/09/28 11:09:08;;;;;;;6.25;4.75;;;;;;;23.00;40.34;99707.47;5093245;28;20447;-81
2021/09/28 11:11:34;;;;;;;5.75;4.60;;;;;;;23.17;40.21;99732.44;5093138;28;20028;-81
2021/09/28 11:14:01;;;;;;;6.93;6.22;;;;;;;23.79;40.62;99828.13;5093358;28;20576;-81
2021/09/28 11:16:27;;;;;;;8.50;6.72;;;;;;;23.09;40.62;99730.19;5093255;28;20059;-81
2021/09/28 11:18:58;;;;;;;8.95;5.85;;;;;;;23.25;40.93;99761.59;5090518;28;20054;-81
2021/09/28 11:21:25;;;;;;;;;;;;;;;23.58;41.05;99835.22;5091952;28;20446;-81
2021/09/28 11:23:54;;;;;;;8.40;7.13;;;;;;;22.45;40.95;99652.78;5092985;28;19915;-81
2021/09/28 11:26:30;;;;;;;8.82;6.05;;;;;;;23.21;40.82;99771.25;5092918;28;20040;-81
2021/09/28 11:28:56;;;;;;;7.78;6.47;;;;;;;23.46;40.90;99817.28;5092970;28;20535;-81
2021/09/28 11:31:31;;;;;;;8.55;6.45;;;;;;;23.52;40.93;99830.81;5092927;28;20107;-81